Time;durP1;ratioP1;P1;durP2;ratioP2;P2;SDS_P1;SDS_P2;PMS_P1;PMS_P2;Temp;Humidity;BMP_temperature;BMP_pressure;BME280_temperature;BME280_humidity;BME280_pressure;Samples;Min_cycle;Max_cycle;Signal;HPM_P1;HPM_P2
2023/06/11 00:00:59;;;;;;;5.95;4.25;;;25.30;50.70;;;;;;4965938;28;88491;-86
2023/06/11 00:03:24;;;;;;;4.88;3.47;;;25.30;50.80;;;;;;4964373;28;89926;-85
2023/06/11 00:05:51;;;;;;;5.45;4.00;;;25.30;50.70;;;;;;4965536;28;87643;-86
2023/06/11 00:08:17;;;;;;;4.55;3.70;;;25.30;50.60;;;;;;4965397;28;87975;-86
2023/06/11 00:10:43;;;;;;;4.97;4.00;;;25.30;50.60;;;;;;4964537;28;89604;-85
2023/06/11 00:13:09;;;;;;;5.03;3.95;;;25.30;50.70;;;;;;4961781;28;91904;-86
2023/06/11 00:15:34;;;;;;;3.97;3.60;;;25.30;50.80;;;;;;4963355;28;87553;-86
2023/06/11 00:18:01;;;;;;;4.85;3.90;;;25.30;50.80;;;;;;4962721;28;87815;-85
2023/06/11 00:20:27;;;;;;;4.70;3.88;;;25.30;50.80;;;;;;4964834;28;87851;-88
2023/06/11 00:22:53;;;;;;;4.82;4.28;;;25.30;50.90;;;;;;4965164;28;87687;-86
2023/06/11 00:25:19;;;;;;;4.57;3.55;;;25.30;50.90;;;;;;4964660;28;87622;-86
2023/06/11 00:27:44;;;;;;;5.95;3.80;;;25.30;50.80;;;;;;4963651;28;88229;-85
2023/06/11 00:30:11;;;;;;;5.43;3.90;;;25.30;50.80;;;;;;4966478;28;88732;-86
2023/06/11 00:32:37;;;;;;;4.28;3.88;;;25.30;50.90;;;;;;4964035;28;87459;-85
2023/06/11 00:35:08;;;;;;;4.32;3.90;;;25.30;51.00;;;;;;4965985;28;88279;-85
2023/06/11 00:37:35;;;;;;;4.93;4.32;;;25.30;51.00;;;;;;4961966;28;89001;-87
2023/06/11 00:40:01;;;;;;;4.43;3.90;;;25.30;51.10;;;;;;4963116;28;89088;-85
2023/06/11 00:42:27;;;;;;;6.03;4.28;;;25.30;51.00;;;;;;4963196;28;87750;-86
2023/06/11 00:44:54;;;;;;;4.82;3.95;;;25.30;51.00;;;;;;4963949;28;86933;-85
2023/06/11 00:47:20;;;;;;;7.53;4.97;;;25.30;51.10;;;;;;4965590;28;87691;-85
2023/06/11 00:49:46;;;;;;;5.93;4.47;;;25.20;51.00;;;;;;4966309;28;88590;-87
2023/06/11 00:52:14;;;;;;;4.78;4.28;;;25.30;51.10;;;;;;4964323;28;87737;-86
2023/06/11 00:54:41;;;;;;;5.63;3.65;;;25.20;51.00;;;;;;4963881;28;88084;-86
2023/06/11 00:57:07;;;;;;;5.15;3.95;;;25.20;51.10;;;;;;4963223;28;88255;-86
2023/06/11 00:59:34;;;;;;;4.32;3.92;;;25.20;51.10;;;;;;4963048;28;90654;-87
2023/06/11 01:02:17;;;;;;;4.88;4.32;;;25.30;51.20;;;;;;4966465;28;88263;-86
2023/06/11 01:04:51;;;;;;;4.85;4.35;;;25.20;51.20;;;;;;4961279;28;87664;-85
2023/06/11 01:07:18;;;;;;;4.25;3.85;;;25.20;51.20;;;;;;4961210;28;87895;-88
2023/06/11 01:09:45;;;;;;;4.22;3.45;;;25.20;51.30;;;;;;4962958;28;87813;-86
2023/06/11 01:12:12;;;;;;;4.75;4.20;;;25.20;51.40;;;;;;4963562;28;87738;-86
2023/06/11 01:14:38;;;;;;;4.20;3.80;;;25.20;51.50;;;;;;4966438;28;87819;-86
2023/06/11 01:17:21;;;;;;;4.03;3.58;;;25.20;51.70;;;;;;4962252;28;90421;-87
2023/06/11 01:19:52;;;;;;;4.70;4.07;;;25.20;51.50;;;;;;4963102;28;87782;-85
2023/06/11 01:22:41;;;;;;;4.25;3.85;;;25.20;51.70;;;;;;4962292;28;88105;-85
2023/06/11 01:25:07;;;;;;;4.63;4.10;;;25.20;51.80;;;;;;4962112;28;88096;-85
2023/06/11 01:28:03;;;;;;;4.88;3.92;;;25.20;51.60;;;;;;4962800;28;88012;-85
2023/06/11 01:30:31;;;;;;;5.47;4.30;;;25.20;51.70;;;;;;4962130;28;87746;-86
2023/06/11 01:32:56;;;;;;;4.28;3.88;;;25.20;51.60;;;;;;4962536;28;87722;-84
2023/06/11 01:35:23;;;;;;;4.45;3.60;;;25.20;51.50;;;;;;4961363;28;88077;-86
2023/06/11 01:37:55;;;;;;;4.53;3.80;;;25.20;51.60;;;;;;4961932;28;87428;-86
2023/06/11 01:40:25;;;;;;;3.90;3.47;;;25.20;51.60;;;;;;4962720;28;87734;-85
2023/06/11 01:42:50;;;;;;;4.38;3.47;;;25.20;51.50;;;;;;4963121;28;87209;-85
2023/06/11 01:45:19;;;;;;;5.28;3.88;;;25.20;51.70;;;;;;4964926;28;87799;-86
2023/06/11 01:47:49;;;;;;;5.13;4.00;;;25.20;51.60;;;;;;4963156;28;87451;-85
2023/06/11 01:50:16;;;;;;;4.57;4.18;;;25.20;51.60;;;;;;4961457;28;91368;-85
2023/06/11 01:52:41;;;;;;;5.07;3.85;;;25.20;51.50;;;;;;4962974;28;89490;-86
2023/06/11 01:55:08;;;;;;;3.60;3.25;;;25.20;51.70;;;;;;4962540;28;87732;-86
2023/06/11 01:57:34;;;;;;;4.57;4.18;;;25.20;51.60;;;;;;4963468;28;87988;-86
2023/06/11 02:00:00;;;;;;;4.35;3.95;;;25.10;51.60;;;;;;4961842;28;87608;-85
2023/06/11 02:02:28;;;;;;;4.68;4.28;;;25.10;51.60;;;;;;4961622;28;87772;-85
2023/06/11 02:04:54;;;;;;;5.10;4.20;;;25.20;51.60;;;;;;4965399;28;87311;-85
2023/06/11 02:07:20;;;;;;;4.63;3.78;;;25.10;51.80;;;;;;4962496;28;87230;-86
2023/06/11 02:09:46;;;;;;;4.43;3.50;;;25.10;51.80;;;;;;4964069;28;87968;-85
2023/06/11 02:12:11;;;;;;;4.80;4.28;;;25.20;51.90;;;;;;4962662;28;88108;-86
2023/06/11 02:14:37;;;;;;;4.70;4.15;;;25.10;51.80;;;;;;4962997;28;88798;-85
2023/06/11 02:17:03;;;;;;;5.25;4.03;;;25.10;51.80;;;;;;4962255;28;86865;-85
2023/06/11 02:19:28;;;;;;;4.40;4.00;;;25.10;52.40;;;;;;4964112;28;87660;-85
2023/06/11 02:21:54;;;;;;;3.85;3.38;;;25.10;51.50;;;;;;4964491;28;87413;-86
2023/06/11 02:24:20;;;;;;;3.70;3.40;;;25.10;51.60;;;;;;4967367;28;87749;-85
2023/06/11 02:26:45;;;;;;;5.35;4.03;;;25.10;51.60;;;;;;4964055;28;87743;-86
2023/06/11 02:29:11;;;;;;;4.63;4.18;;;25.10;51.70;;;;;;4964573;28;87612;-84
2023/06/11 02:31:36;;;;;;;5.07;4.57;;;25.10;51.90;;;;;;4965917;28;88556;-85
2023/06/11 02:34:02;;;;;;;4.57;4.10;;;25.10;51.70;;;;;;4965413;28;87634;-85
2023/06/11 02:36:27;;;;;;;4.32;3.63;;;25.10;51.80;;;;;;4965536;28;87662;-86
2023/06/11 02:38:53;;;;;;;4.03;3.63;;;25.10;51.90;;;;;;4964435;28;90307;-86
2023/06/11 02:41:19;;;;;;;5.13;4.32;;;25.10;51.80;;;;;;4968323;28;88656;-86
2023/06/11 02:43:44;;;;;;;4.32;3.92;;;25.10;51.80;;;;;;4964066;28;87436;-85
2023/06/11 02:46:10;;;;;;;4.28;3.88;;;25.10;51.90;;;;;;4965188;28;87302;-86
2023/06/11 02:48:35;;;;;;;4.60;3.80;;;25.10;51.90;;;;;;4968964;28;88284;-85
2023/06/11 02:51:01;;;;;;;4.43;4.03;;;25.10;51.90;;;;;;4962964;28;89844;-87
2023/06/11 02:53:27;;;;;;;4.10;3.70;;;25.10;52.10;;;;;;4964463;28;87769;-86
2023/06/11 02:55:52;;;;;;;4.18;3.50;;;25.10;51.90;;;;;;4965672;28;86729;-86
2023/06/11 02:58:18;;;;;;;4.13;3.72;;;25.10;51.90;;;;;;4967060;28;88108;-86
2023/06/11 03:00:44;;;;;;;4.53;3.60;;;25.10;52.00;;;;;;4965169;28;90246;-86
2023/06/11 03:03:10;;;;;;;4.35;3.95;;;25.10;52.10;;;;;;4966521;28;88736;-85
2023/06/11 03:05:36;;;;;;;4.65;4.10;;;25.00;51.90;;;;;;4965440;28;87630;-86
2023/06/11 03:08:01;;;;;;;4.88;4.40;;;25.00;51.90;;;;;;4965725;28;88061;-85
2023/06/11 03:10:28;;;;;;;4.90;3.90;;;25.10;52.00;;;;;;4965550;28;88629;-85
2023/06/11 03:12:54;;;;;;;4.88;4.38;;;25.00;51.90;;;;;;4967395;28;87793;-87
2023/06/11 03:15:20;;;;;;;4.70;4.25;;;25.00;52.00;;;;;;4964722;28;88388;-86
2023/06/11 03:17:45;;;;;;;4.53;4.13;;;25.00;52.10;;;;;;4963782;28;87677;-86
2023/06/11 03:20:12;;;;;;;5.07;4.57;;;25.00;52.00;;;;;;4966874;28;88066;-85
2023/06/11 03:22:38;;;;;;;5.60;4.85;;;25.00;52.20;;;;;;4965198;28;87522;-86
2023/06/11 03:25:04;;;;;;;5.07;4.57;;;25.00;52.00;;;;;;4963722;28;87033;-85
2023/06/11 03:27:30;;;;;;;4.65;3.88;;;25.00;52.00;;;;;;4962261;28;90881;-85
2023/06/11 03:29:55;;;;;;;4.20;3.80;;;25.00;52.10;;;;;;4964397;28;88961;-85
2023/06/11 03:32:21;;;;;;;3.85;3.53;;;25.00;52.20;;;;;;4964401;28;87760;-85
2023/06/11 03:34:46;;;;;;;4.40;4.00;;;25.00;52.20;;;;;;4966256;28;87042;-85
2023/06/11 03:37:12;;;;;;;5.57;4.93;;;25.00;52.10;;;;;;4966408;28;87817;-85
2023/06/11 03:39:37;;;;;;;5.00;4.50;;;25.00;52.10;;;;;;4962624;28;88933;-85
2023/06/11 03:42:03;;;;;;;4.72;4.28;;;25.00;52.10;;;;;;4966901;28;87898;-85
2023/06/11 03:44:29;;;;;;;4.40;4.00;;;25.00;52.10;;;;;;4962847;28;89070;-85
2023/06/11 03:46:55;;;;;;;4.55;4.15;;;25.00;52.20;;;;;;4967216;28;88232;-85
2023/06/11 03:49:20;;;;;;;4.28;3.88;;;25.00;52.10;;;;;;4965646;28;87871;-86
2023/06/11 03:51:46;;;;;;;4.53;4.13;;;25.00;52.10;;;;;;4965748;28;89375;-86
2023/06/11 03:54:11;;;;;;;4.25;3.65;;;25.00;52.10;;;;;;4965811;28;87890;-86
2023/06/11 03:56:37;;;;;;;4.10;3.70;;;25.00;52.30;;;;;;4962354;28;87682;-85
2023/06/11 03:59:03;;;;;;;4.30;3.88;;;25.00;52.10;;;;;;4961491;28;88622;-86
2023/06/11 04:01:30;;;;;;;3.90;3.58;;;25.00;52.20;;;;;;4963498;28;87931;-86
2023/06/11 04:03:56;;;;;;;4.72;3.72;;;25.00;52.20;;;;;;4962894;28;87982;-85
2023/06/11 04:06:22;;;;;;;5.13;3.88;;;25.00;52.20;;;;;;4964344;28;88232;-86
2023/06/11 04:08:47;;;;;;;5.30;4.00;;;25.00;52.20;;;;;;4963527;28;87741;-85
2023/06/11 04:11:13;;;;;;;4.43;4.03;;;25.00;52.30;;;;;;4965448;28;87482;-85
2023/06/11 04:13:38;;;;;;;4.50;4.10;;;25.00;52.00;;;;;;4962904;28;87926;-86
2023/06/11 04:16:04;;;;;;;5.05;3.60;;;25.00;52.10;;;;;;4962939;28;89366;-85
2023/06/11 04:18:30;;;;;;;4.63;4.00;;;25.00;52.20;;;;;;4963061;28;88546;-84
2023/06/11 04:20:56;;;;;;;4.45;4.05;;;25.00;52.00;;;;;;4965150;28;87812;-85
2023/06/11 04:23:21;;;;;;;4.57;4.18;;;25.00;52.20;;;;;;4962831;28;87375;-85
2023/06/11 04:25:48;;;;;;;4.57;4.18;;;25.10;52.00;;;;;;4964194;28;87701;-85
2023/06/11 04:28:15;;;;;;;4.18;3.78;;;25.00;52.00;;;;;;4962344;28;90485;-86
2023/06/11 04:30:41;;;;;;;4.18;3.78;;;25.10;52.10;;;;;;4965221;28;87949;-86
2023/06/11 04:33:07;;;;;;;4.50;4.10;;;25.10;52.00;;;;;;4964228;28;88475;-85
2023/06/11 04:35:34;;;;;;;3.58;3.25;;;25.10;52.00;;;;;;4961487;28;89486;-85
2023/06/11 04:38:02;;;;;;;5.05;3.63;;;25.20;52.00;;;;;;4963077;28;87948;-84
2023/06/11 04:40:29;;;;;;;3.72;3.42;;;25.20;51.80;;;;;;4964182;28;88376;-85
2023/06/11 04:42:54;;;;;;;4.30;3.75;;;25.20;51.60;;;;;;4964148;28;87307;-86
2023/06/11 04:45:20;;;;;;;4.68;4.00;;;25.20;51.60;;;;;;4966180;28;87757;-85
2023/06/11 04:47:46;;;;;;;3.33;2.92;;;25.20;51.60;;;;;;4962769;28;88193;-85
2023/06/11 04:50:12;;;;;;;4.03;3.60;;;25.30;51.80;;;;;;4964159;28;87539;-85
2023/06/11 04:52:38;;;;;;;3.95;3.47;;;25.30;51.60;;;;;;4964165;28;87767;-85
2023/06/11 04:55:09;;;;;;;3.67;3.38;;;25.30;51.60;;;;;;4965367;28;87772;-86
2023/06/11 04:57:36;;;;;;;3.50;3.20;;;25.40;51.40;;;;;;4964479;28;87505;-86
2023/06/11 05:00:13;;;;;;;3.72;3.38;;;25.40;51.50;;;;;;4963855;28;88065;-87
2023/06/11 05:02:43;;;;;;;4.72;3.78;;;25.40;51.30;;;;;;4963747;28;87362;-85
2023/06/11 05:05:09;;;;;;;3.30;3.00;;;25.40;51.40;;;;;;4962404;28;89667;-85
2023/06/11 05:07:35;;;;;;;4.28;3.50;;;25.40;51.30;;;;;;4980550;28;92114;-85
2023/06/11 05:10:01;;;;;;;3.42;3.13;;;25.50;51.40;;;;;;4962983;28;87804;-85
2023/06/11 05:12:27;;;;;;;3.72;3.33;;;25.50;51.20;;;;;;4965326;28;87743;-85
2023/06/11 05:14:52;;;;;;;5.20;3.55;;;25.50;51.30;;;;;;4960953;28;89023;-85
2023/06/11 05:17:18;;;;;;;3.40;3.10;;;25.50;51.20;;;;;;4963315;28;87946;-85
2023/06/11 05:19:44;;;;;;;3.33;3.03;;;25.60;51.30;;;;;;4963688;28;87415;-85
2023/06/11 05:22:09;;;;;;;4.03;3.60;;;25.60;51.20;;;;;;4965708;28;87371;-85
2023/06/11 05:24:35;;;;;;;3.50;3.20;;;25.60;51.20;;;;;;4963721;28;88767;-85
2023/06/11 05:27:01;;;;;;;3.20;2.90;;;25.60;51.20;;;;;;4962723;28;87842;-85
2023/06/11 05:29:27;;;;;;;3.10;2.80;;;25.70;51.20;;;;;;4963182;28;88506;-86
2023/06/11 05:31:53;;;;;;;3.78;3.30;;;25.70;51.30;;;;;;4963024;28;88403;-85
2023/06/11 05:34:19;;;;;;;4.10;3.47;;;25.70;51.20;;;;;;4964359;28;88198;-86
2023/06/11 05:36:48;;;;;;;3.22;2.92;;;25.70;51.20;;;;;;4963522;28;88053;-87
2023/06/11 05:39:13;;;;;;;3.28;2.97;;;25.80;51.40;;;;;;4962021;28;88365;-85
2023/06/11 05:41:39;;;;;;;3.65;3.35;;;25.80;51.50;;;;;;4962506;28;87519;-86
2023/06/11 05:44:05;;;;;;;3.58;3.28;;;25.90;51.50;;;;;;4963560;28;88128;-84
2023/06/11 05:46:31;;;;;;;3.50;3.20;;;25.90;51.40;;;;;;4963263;28;88993;-85
2023/06/11 05:48:58;;;;;;;3.53;3.20;;;25.90;51.20;;;;;;4964509;28;86969;-85
2023/06/11 05:51:24;;;;;;;3.33;3.03;;;26.00;51.10;;;;;;4968149;28;87956;-86
2023/06/11 05:53:50;;;;;;;3.72;3.10;;;26.00;50.90;;;;;;4964366;28;89562;-86
2023/06/11 05:56:16;;;;;;;3.53;3.13;;;26.10;50.90;;;;;;4965132;28;88625;-85
2023/06/11 05:58:42;;;;;;;3.65;3.35;;;26.10;50.80;;;;;;4964763;28;88013;-85
2023/06/11 06:01:09;;;;;;;4.00;3.60;;;26.20;50.90;;;;;;4967870;28;87713;-86
2023/06/11 06:03:34;;;;;;;3.72;3.40;;;26.20;50.90;;;;;;4966790;28;87638;-86
2023/06/11 06:06:03;;;;;;;3.50;2.72;;;26.20;51.10;;;;;;4967110;28;90630;-86
2023/06/11 06:08:30;;;;;;;3.80;3.50;;;26.30;50.90;;;;;;4967656;28;88016;-85
2023/06/11 06:10:56;;;;;;;3.55;3.25;;;26.30;51.00;;;;;;4965746;28;87021;-86
2023/06/11 06:13:24;;;;;;;4.43;3.17;;;26.40;50.80;;;;;;4971157;28;88227;-85
2023/06/11 06:15:50;;;;;;;3.30;3.00;;;26.40;50.80;;;;;;4965846;28;87727;-85
2023/06/11 06:18:16;;;;;;;3.20;2.88;;;26.40;50.70;;;;;;4965329;28;88699;-86
2023/06/11 06:20:42;;;;;;;3.97;3.60;;;26.40;50.60;;;;;;4965643;28;87547;-85
2023/06/11 06:23:09;;;;;;;3.30;2.90;;;26.40;50.70;;;;;;4965923;28;88248;-85
2023/06/11 06:25:37;;;;;;;3.50;3.10;;;26.40;50.60;;;;;;4967180;28;87760;-85
2023/06/11 06:30:28;;;;;;;3.30;3.05;;;26.50;50.60;;;;;;4965668;28;87328;-87
2023/06/11 06:32:54;;;;;;;4.78;3.08;;;26.50;50.90;;;;;;4966107;28;89217;-86
2023/06/11 06:35:20;;;;;;;3.58;3.15;;;26.60;50.80;;;;;;4965256;28;87912;-85
2023/06/11 06:37:45;;;;;;;3.80;3.50;;;26.60;50.60;;;;;;4963137;28;87685;-84
2023/06/11 06:40:12;;;;;;;3.97;3.58;;;26.60;50.70;;;;;;4965083;28;87978;-84
2023/06/11 06:42:38;;;;;;;3.30;3.00;;;26.60;50.60;;;;;;4966416;28;88674;-85
2023/06/11 06:45:04;;;;;;;3.75;3.05;;;26.60;50.70;;;;;;4967943;28;88792;-87
2023/06/11 06:47:30;;;;;;;4.60;3.75;;;26.60;50.70;;;;;;4965818;28;87655;-86
2023/06/11 06:49:55;;;;;;;3.42;3.10;;;26.60;50.60;;;;;;4966411;28;87330;-85
2023/06/11 06:52:21;;;;;;;3.78;3.47;;;26.70;50.60;;;;;;4965057;28;88689;-88
2023/06/11 06:54:48;;;;;;;3.50;3.20;;;26.70;50.80;;;;;;4966206;28;87612;-84
2023/06/11 06:57:14;;;;;;;3.90;3.40;;;26.70;50.80;;;;;;4965734;28;87560;-86
2023/06/11 06:59:39;;;;;;;3.40;3.10;;;26.70;50.70;;;;;;4965593;28;87591;-85
2023/06/11 07:02:05;;;;;;;3.80;3.13;;;26.80;50.70;;;;;;4966311;28;87601;-86
2023/06/11 07:04:31;;;;;;;3.53;3.22;;;26.80;50.70;;;;;;4964690;28;88721;-88
2023/06/11 07:06:56;;;;;;;3.60;3.30;;;26.80;50.60;;;;;;4963050;28;88584;-84
2023/06/11 07:09:22;;;;;;;4.28;3.88;;;26.60;50.40;;;;;;4964862;28;87380;-83
2023/06/11 07:11:48;;;;;;;5.78;4.10;;;26.50;50.70;;;;;;4963340;28;88639;-85
2023/06/11 07:14:14;;;;;;;5.85;4.95;;;26.50;50.70;;;;;;4964375;28;87504;-85
2023/06/11 07:16:40;;;;;;;5.68;4.90;;;26.40;51.50;;;;;;4965261;28;87453;-84
2023/06/11 07:19:05;;;;;;;6.18;5.57;;;26.40;51.60;;;;;;4967433;28;87248;-85
2023/06/11 07:21:32;;;;;;;5.85;5.35;;;26.40;52.00;;;;;;4967661;28;87850;-85
2023/06/11 07:23:58;;;;;;;8.07;5.50;;;26.40;52.00;;;;;;4969765;28;87740;-85
2023/06/11 07:26:25;;;;;;;6.25;5.32;;;26.40;52.10;;;;;;4968689;28;86996;-84
2023/06/11 07:28:51;;;;;;;7.38;5.20;;;26.40;52.10;;;;;;4966656;28;87958;-84
2023/06/11 07:31:16;;;;;;;6.80;5.20;;;26.40;52.20;;;;;;4963190;28;89787;-85
2023/06/11 07:33:43;;;;;;;6.15;4.97;;;26.50;52.10;;;;;;4968622;28;87408;-86
2023/06/11 07:36:08;;;;;;;7.70;6.28;;;26.50;52.10;;;;;;4965748;28;87768;-85
2023/06/11 07:38:34;;;;;;;7.00;5.85;;;26.50;52.00;;;;;;4968445;28;87091;-83
2023/06/11 07:41:01;;;;;;;8.70;5.75;;;26.40;51.70;;;;;;4970674;28;88473;-86
2023/06/11 07:43:27;;;;;;;7.68;5.82;;;26.40;52.00;;;;;;4970156;28;88086;-84
2023/06/11 07:45:52;;;;;;;6.93;5.20;;;26.30;52.20;;;;;;4966689;28;87802;-84
2023/06/11 07:48:18;;;;;;;11.57;5.93;;;26.30;52.30;;;;;;4971890;28;86753;-84
2023/06/11 07:50:44;;;;;;;7.10;5.88;;;26.30;52.50;;;;;;4968612;28;87592;-85
2023/06/11 07:53:12;;;;;;;8.13;5.80;;;26.30;52.60;;;;;;4964708;28;87374;-83
2023/06/11 07:55:38;;;;;;;10.57;6.53;;;26.30;52.50;;;;;;4960322;28;88710;-84
2023/06/11 07:58:04;;;;;;;7.55;5.35;;;26.30;52.70;;;;;;4967093;28;88016;-85
2023/06/11 08:00:29;;;;;;;7.28;5.90;;;26.30;52.50;;;;;;4968486;28;87857;-84
2023/06/11 08:02:55;;;;;;;7.43;5.38;;;26.30;53.10;;;;;;4967375;28;88105;-83
2023/06/11 08:05:21;;;;;;;9.20;5.72;;;26.40;52.40;;;;;;4968186;28;87860;-84
2023/06/11 08:07:48;;;;;;;8.27;5.60;;;26.40;52.50;;;;;;4966108;28;87486;-85
2023/06/11 08:10:14;;;;;;;33.00;8.85;;;26.40;53.10;;;;;;4967525;28;88081;-85
2023/06/11 08:12:41;;;;;;;77.18;18.02;;;26.30;52.90;;;;;;4970275;28;88446;-84
2023/06/11 08:15:08;;;;;;;106.63;26.80;;;26.40;53.10;;;;;;4965594;28;87458;-85
2023/06/11 08:17:34;;;;;;;90.50;23.45;;;26.40;52.90;;;;;;4968695;28;87861;-87
2023/06/11 08:20:00;;;;;;;98.18;25.88;;;26.30;52.60;;;;;;4967540;28;88456;-85
2023/06/11 08:22:26;;;;;;;102.20;26.42;;;26.10;50.40;;;;;;4967821;28;87686;-89
2023/06/11 08:24:52;;;;;;;96.10;26.90;;;25.90;50.30;;;;;;4965257;28;88679;-87
2023/06/11 08:27:17;;;;;;;84.18;25.10;;;25.80;51.30;;;;;;4968213;28;87657;-85
2023/06/11 08:29:43;;;;;;;96.80;26.25;;;25.70;52.10;;;;;;4972431;28;88958;-85
2023/06/11 08:32:08;;;;;;;77.45;23.48;;;25.90;52.40;;;;;;4965383;28;87875;-85
2023/06/11 08:34:34;;;;;;;73.20;23.77;;;25.90;52.50;;;;;;4970981;28;87818;-85
2023/06/11 08:37:01;;;;;;;73.20;22.90;;;26.10;52.30;;;;;;4969212;28;86676;-86
2023/06/11 08:39:26;;;;;;;79.15;22.98;;;26.20;52.40;;;;;;4970520;28;88030;-88
2023/06/11 08:41:53;;;;;;;77.95;24.20;;;26.30;52.50;;;;;;4967890;28;87640;-85
2023/06/11 08:44:20;;;;;;;70.60;22.02;;;26.40;52.60;;;;;;4969972;28;88614;-84
2023/06/11 08:46:48;;;;;;;72.25;22.20;;;26.40;52.70;;;;;;4971886;28;88090;-88
2023/06/11 08:49:23;;;;;;;70.15;21.88;;;26.30;52.90;;;;;;4972485;28;88237;-85
2023/06/11 08:51:50;;;;;;;70.53;22.60;;;26.30;52.90;;;;;;4975180;28;88541;-85
2023/06/11 08:54:16;;;;;;;62.80;23.65;;;26.30;53.10;;;;;;4973109;28;87403;-87
2023/06/11 08:56:43;;;;;;;57.05;19.35;;;26.30;53.40;;;;;;4973301;28;87702;-85
2023/06/11 08:59:09;;;;;;;66.18;22.05;;;26.40;53.50;;;;;;4972378;28;88131;-83
2023/06/11 09:01:35;;;;;;;64.00;22.00;;;26.40;53.80;;;;;;4971319;28;86971;-85
2023/06/11 09:04:00;;;;;;;55.53;21.85;;;26.40;53.90;;;;;;4966913;28;87323;-86
2023/06/11 09:06:28;;;;;;;53.75;19.73;;;26.50;53.90;;;;;;4968874;28;87835;-83
2023/06/11 09:09:05;;;;;;;58.58;22.00;;;26.50;55.30;;;;;;4962312;28;88866;-84
2023/06/11 09:11:35;;;;;;;50.53;18.75;;;26.50;56.00;;;;;;4963850;28;87594;-82
2023/06/11 09:14:02;;;;;;;47.10;18.73;;;26.50;56.70;;;;;;4969167;28;87276;-82
2023/06/11 09:16:28;;;;;;;44.85;18.10;;;26.60;57.10;;;;;;4966592;28;87192;-83
2023/06/11 09:18:56;;;;;;;48.50;17.85;;;26.60;56.60;;;;;;4969622;28;88144;-83
2023/06/11 09:21:25;;;;;;;37.35;16.35;;;26.50;58.10;;;;;;4966704;28;91077;-83
2023/06/11 09:23:51;;;;;;;64.75;22.08;;;26.60;58.20;;;;;;4971514;28;87341;-87
2023/06/11 09:26:17;;;;;;;71.38;23.60;;;26.60;58.30;;;;;;4963730;28;86768;-83
2023/06/11 09:28:43;;;;;;;55.80;19.33;;;26.50;58.50;;;;;;4966687;28;88252;-84
2023/06/11 09:31:08;;;;;;;68.80;24.40;;;26.50;58.00;;;;;;4969207;28;88212;-87
2023/06/11 09:33:36;;;;;;;62.45;19.73;;;26.40;58.40;;;;;;4970312;28;88739;-82
2023/06/11 09:36:02;;;;;;;60.03;22.75;;;26.40;59.10;;;;;;4971078;28;87928;-88
2023/06/11 09:38:27;;;;;;;59.22;21.77;;;26.30;57.80;;;;;;4970309;28;87327;-83
2023/06/11 09:40:57;;;;;;;54.13;20.92;;;26.30;58.30;;;;;;4968874;28;87945;-83
2023/06/11 09:43:24;;;;;;;44.50;18.02;;;26.30;58.10;;;;;;4971632;28;88325;-85
2023/06/11 09:45:54;;;;;;;53.25;19.23;;;26.30;57.90;;;;;;4969527;28;87540;-88
2023/06/11 09:48:21;;;;;;;49.00;18.90;;;26.30;57.40;;;;;;4965954;28;88563;-85
2023/06/11 09:50:51;;;;;;;47.75;18.75;;;26.30;57.40;;;;;;4964787;28;88806;-86
2023/06/11 09:53:22;;;;;;;50.55;18.00;;;26.20;57.10;;;;;;4973752;28;87317;-86
2023/06/11 09:55:51;;;;;;;44.08;18.30;;;26.20;57.30;;;;;;4966824;28;87288;-87
2023/06/11 09:58:18;;;;;;;35.72;15.93;;;26.20;57.30;;;;;;4963486;28;89046;-84
2023/06/11 10:00:48;;;;;;;40.78;17.00;;;26.20;57.30;;;;;;4968939;28;88971;-87
2023/06/11 10:03:13;;;;;;;35.17;13.98;;;26.20;57.40;;;;;;4970289;28;87808;-84
2023/06/11 10:05:39;;;;;;;35.28;16.20;;;26.30;57.30;;;;;;4967333;28;87423;-89
2023/06/11 10:08:17;;;;;;;31.25;13.38;;;26.30;57.80;;;;;;4968623;28;87499;-83
2023/06/11 10:10:45;;;;;;;31.90;14.77;;;26.30;57.40;;;;;;4968804;28;87734;-86
2023/06/11 10:13:11;;;;;;;30.13;14.40;;;26.20;57.00;;;;;;4965614;28;88154;-85
2023/06/11 10:15:37;;;;;;;31.08;13.43;;;26.30;57.20;;;;;;4966678;28;87396;-87
2023/06/11 10:18:12;;;;;;;27.08;13.13;;;26.20;55.10;;;;;;4965080;28;89002;-85
2023/06/11 10:20:50;;;;;;;25.90;12.98;;;26.10;53.70;;;;;;4965693;28;87824;-85
2023/06/11 10:23:17;;;;;;;21.70;11.93;;;26.00;52.60;;;;;;4964803;28;88625;-84
2023/06/11 10:25:52;;;;;;;25.58;11.48;;;25.80;51.80;;;;;;4968687;28;87672;-85
2023/06/11 10:28:17;;;;;;;21.73;10.65;;;25.70;50.80;;;;;;4967214;28;88054;-86
2023/06/11 10:30:53;;;;;;;26.75;11.52;;;25.60;50.40;;;;;;4966490;28;88553;-84
2023/06/11 10:33:20;;;;;;;21.08;11.02;;;25.40;49.60;;;;;;4964222;28;88186;-85
2023/06/11 10:35:47;;;;;;;22.55;11.27;;;25.30;49.40;;;;;;4967229;28;87519;-84
2023/06/11 10:38:14;;;;;;;21.10;11.30;;;25.20;48.70;;;;;;4963287;28;88071;-84
2023/06/11 10:40:43;;;;;;;22.00;10.63;;;25.20;48.60;;;;;;4967042;28;87980;-86
2023/06/11 10:43:18;;;;;;;23.15;10.52;;;25.10;48.10;;;;;;4966130;28;87688;-89
2023/06/11 10:45:44;;;;;;;19.90;10.90;;;25.10;47.40;;;;;;4967139;28;87553;-86
2023/06/11 10:48:11;;;;;;;19.50;10.73;;;25.00;47.30;;;;;;4969331;28;88359;-87
2023/06/11 10:50:37;;;;;;;19.02;10.13;;;25.00;46.90;;;;;;4968547;28;88874;-87
2023/06/11 10:53:09;;;;;;;15.43;9.57;;;24.90;46.70;;;;;;4968457;28;87744;-84
2023/06/11 10:55:36;;;;;;;16.55;9.60;;;24.90;46.50;;;;;;4965726;28;88044;-84
2023/06/11 10:58:02;;;;;;;16.42;9.25;;;24.90;46.90;;;;;;4967631;28;88077;-88
2023/06/11 11:00:32;;;;;;;20.50;10.18;;;25.00;47.20;;;;;;4974107;28;88320;-85
2023/06/11 11:03:03;;;;;;;19.20;10.27;;;25.10;47.10;;;;;;4964988;28;87445;-85
2023/06/11 11:05:29;;;;;;;21.63;10.25;;;25.10;46.70;;;;;;4964131;28;89167;-87
2023/06/11 11:07:55;;;;;;;17.42;9.90;;;25.10;46.90;;;;;;4965736;28;87824;-84
2023/06/11 11:10:25;;;;;;;18.52;9.50;;;25.20;46.80;;;;;;4966809;28;87928;-85
2023/06/11 11:12:51;;;;;;;16.63;9.35;;;25.20;46.60;;;;;;4964799;28;88161;-84
2023/06/11 11:15:16;;;;;;;19.88;10.25;;;25.10;46.30;;;;;;4963881;28;87687;-83
2023/06/11 11:17:43;;;;;;;16.45;9.50;;;25.10;45.90;;;;;;4967606;28;88344;-82
2023/06/11 11:20:14;;;;;;;15.65;9.23;;;25.20;46.00;;;;;;4968108;28;87601;-86
2023/06/11 11:22:40;;;;;;;13.38;8.55;;;25.10;45.70;;;;;;4970416;28;87461;-83
2023/06/11 11:25:07;;;;;;;16.55;9.00;;;25.20;45.90;;;;;;4967259;28;88063;-88
2023/06/11 11:27:37;;;;;;;19.00;8.77;;;25.20;46.40;;;;;;4969606;28;88263;-85
2023/06/11 11:30:04;;;;;;;15.32;9.45;;;25.20;47.10;;;;;;4970345;28;87722;-84
2023/06/11 11:32:32;;;;;;;19.58;9.25;;;25.10;47.50;;;;;;4965723;28;87223;-89
2023/06/11 11:35:00;;;;;;;16.45;9.50;;;25.10;47.50;;;;;;4969284;28;87605;-89
2023/06/11 11:37:30;;;;;;;18.55;10.05;;;25.10;47.40;;;;;;4969410;28;88540;-83
2023/06/11 11:39:59;;;;;;;19.08;10.05;;;25.10;47.10;;;;;;4963514;28;88839;-83
2023/06/11 11:42:24;;;;;;;18.70;9.52;;;25.10;46.90;;;;;;4966650;28;87903;-82
2023/06/11 11:44:53;;;;;;;17.95;9.52;;;25.10;46.60;;;;;;4974113;28;87432;-83
2023/06/11 11:47:21;;;;;;;16.23;9.23;;;25.10;46.40;;;;;;4971064;28;87421;-89
2023/06/11 11:49:54;;;;;;;19.48;9.80;;;25.10;47.10;;;;;;4973832;28;87977;-88
2023/06/11 11:52:23;;;;;;;16.08;9.90;;;25.00;46.80;;;;;;4968268;28;88113;-88
2023/06/11 11:54:49;;;;;;;;;;;25.10;46.20;;;;;;4969004;28;88833;-89
2023/06/11 11:57:19;;;;;;;15.20;8.20;;;25.10;45.90;;;;;;4960202;28;88385;-88
2023/06/11 11:59:45;;;;;;;17.15;8.32;;;25.20;45.60;;;;;;4992843;28;88470;-86
2023/06/11 12:02:11;;;;;;;12.65;7.85;;;25.20;45.90;;;;;;4990503;28;88367;-89
2023/06/11 12:04:42;;;;;;;14.77;9.35;;;25.10;44.80;;;;;;4989406;28;87927;-91
2023/06/11 12:07:12;;;;;;;14.90;8.35;;;25.00;44.70;;;;;;4989388;28;89268;-87
2023/06/11 12:09:39;;;;;;;14.07;8.65;;;25.00;44.30;;;;;;4988023;28;87710;-87
2023/06/11 12:12:07;;;;;;;12.43;8.07;;;24.90;44.50;;;;;;4987940;28;87978;-87
2023/06/11 12:14:33;;;;;;;14.75;8.20;;;25.00;44.40;;;;;;4988361;28;87305;-86
2023/06/11 12:16:58;;;;;;;15.98;8.40;;;24.90;44.10;;;;;;4987594;28;87819;-87
2023/06/11 12:19:24;;;;;;;11.48;7.35;;;24.80;44.10;;;;;;4997494;28;89108;-91
2023/06/11 12:21:51;;;;;;;11.65;7.60;;;24.80;44.00;;;;;;4989984;28;87896;-89
2023/06/11 12:24:16;;;;;;;14.98;8.02;;;24.70;44.10;;;;;;4987803;28;89662;-89
2023/06/11 12:26:45;;;;;;;12.50;7.93;;;24.70;44.10;;;;;;4990698;28;88724;-92
2023/06/11 12:29:11;;;;;;;13.52;8.20;;;24.70;44.10;;;;;;4998343;28;91439;-89
2023/06/11 12:31:38;;;;;;;13.30;7.55;;;24.70;43.80;;;;;;4986324;28;88243;-91
2023/06/11 12:34:05;;;;;;;12.70;7.70;;;24.70;43.60;;;;;;4989372;28;87859;-90
2023/06/11 12:36:32;;;;;;;9.93;7.22;;;24.70;43.50;;;;;;4990982;28;90260;-90
2023/06/11 12:38:59;;;;;;;12.65;7.53;;;24.70;43.10;;;;;;4989336;28;90410;-91
2023/06/11 12:41:25;;;;;;;9.18;6.90;;;24.70;42.80;;;;;;4990570;28;88016;-92